createdAt,value
2023-03-18T00:00:17.910Z,1005.09
2023-03-18T00:01:17.609Z,1005.13
2023-03-18T00:02:17.800Z,1005.09
2023-03-18T00:03:17.783Z,1005.07
2023-03-18T00:04:17.713Z,1005.08
2023-03-18T00:05:17.728Z,1005.16
2023-03-18T00:06:18.069Z,1005.17
2023-03-18T00:07:17.793Z,1005.19
2023-03-18T00:08:17.830Z,1005.25
2023-03-18T00:09:17.851Z,1005.25
2023-03-18T00:10:17.894Z,1005.26
2023-03-18T00:11:17.912Z,1005.28
2023-03-18T00:12:17.948Z,1005.23
2023-03-18T00:13:18.266Z,1005.30
2023-03-18T00:14:17.997Z,1005.28
2023-03-18T00:15:18.036Z,1005.28
2023-03-18T00:17:18.087Z,1005.28
2023-03-18T00:18:18.144Z,1005.27
2023-03-18T00:19:18.150Z,1005.26
2023-03-18T00:20:18.535Z,1005.28
2023-03-18T00:21:18.229Z,1005.23
2023-03-18T00:22:18.259Z,1005.24
2023-03-18T00:23:18.262Z,1005.21
2023-03-18T00:24:18.399Z,1005.17
2023-03-18T00:25:18.325Z,1005.21
2023-03-18T00:26:18.352Z,1005.18
2023-03-18T00:27:18.699Z,1005.17
2023-03-18T00:28:19.017Z,1005.15
2023-03-18T00:29:18.439Z,1005.15
2023-03-18T00:30:18.462Z,1005.14
2023-03-18T00:31:18.539Z,1005.15
2023-03-18T00:32:18.541Z,1005.13
2023-03-18T00:33:18.670Z,1005.14
2023-03-18T00:34:18.906Z,1005.12
2023-03-18T00:35:18.631Z,1005.11
2023-03-18T00:36:18.660Z,1005.08
2023-03-18T00:37:18.673Z,1005.08
2023-03-18T00:38:18.712Z,1005.11
2023-03-18T00:40:19.067Z,1005.09
2023-03-18T00:41:18.792Z,1005.12
2023-03-18T00:43:18.955Z,1005.08
2023-03-18T00:45:18.909Z,1005.02
2023-03-18T00:46:19.024Z,1005.08
2023-03-18T00:47:19.264Z,1005.08
2023-03-18T00:48:19.008Z,1005.12
2023-03-18T00:49:19.037Z,1005.12
2023-03-18T00:50:19.075Z,1005.12
2023-03-18T00:51:19.092Z,1005.15
2023-03-18T00:52:19.136Z,1005.17
2023-03-18T00:53:19.155Z,1005.19
2023-03-18T00:54:19.472Z,1005.23
2023-03-18T00:55:19.368Z,1005.25
2023-03-18T00:56:19.244Z,1005.27
2023-03-18T00:57:19.259Z,1005.31
2023-03-18T00:58:19.286Z,1005.28
2023-03-18T00:59:19.332Z,1005.29
2023-03-18T01:00:19.354Z,1005.26
2023-03-18T01:01:19.740Z,1005.17
2023-03-18T01:02:19.477Z,1005.20
2023-03-18T01:03:19.449Z,1005.22
2023-03-18T01:04:19.476Z,1005.17
2023-03-18T01:06:19.544Z,1005.16
2023-03-18T01:07:19.601Z,1005.14
2023-03-18T01:08:19.884Z,1005.14
2023-03-18T01:09:19.623Z,1005.14
2023-03-18T01:10:19.639Z,1005.13
2023-03-18T01:12:19.726Z,1005.12
2023-03-18T01:13:19.733Z,1005.08
2023-03-18T01:14:20.177Z,1005.06
2023-03-18T01:15:19.798Z,1005.06
2023-03-18T01:16:19.842Z,1005.07
2023-03-18T01:17:19.850Z,1005.14
2023-03-18T01:18:19.886Z,1005.20
2023-03-18T01:21:20.291Z,1005.20
2023-03-18T01:22:20.143Z,1005.19
2023-03-18T01:23:20.035Z,1005.19
2023-03-18T01:24:20.057Z,1005.17
2023-03-18T01:25:20.082Z,1005.23
2023-03-18T01:26:20.138Z,1005.23
2023-03-18T01:27:20.457Z,1005.19
2023-03-18T01:28:20.176Z,1005.24
2023-03-18T01:29:20.197Z,1005.20
2023-03-18T01:30:20.236Z,1005.20
2023-03-18T01:31:20.436Z,1005.24
2023-03-18T01:33:20.626Z,1005.25
2023-03-18T01:34:20.350Z,1005.15
2023-03-18T01:35:20.388Z,1005.11
2023-03-18T01:36:20.399Z,1005.11
2023-03-18T01:37:20.442Z,1005.10
2023-03-18T01:38:20.481Z,1005.09
2023-03-18T01:39:20.499Z,1005.09
2023-03-18T01:40:20.819Z,1005.08
2023-03-18T01:41:20.649Z,1005.12
2023-03-18T01:42:20.581Z,1005.08
2023-03-18T01:43:20.613Z,1005.09
2023-03-18T01:44:20.646Z,1005.04
2023-03-18T01:46:20.997Z,1005.08
2023-03-18T01:47:20.724Z,1005.06
2023-03-18T01:48:20.791Z,1005.03
2023-03-18T01:50:20.817Z,1004.95
2023-03-18T01:51:20.847Z,1004.93
2023-03-18T01:52:20.867Z,1004.92
2023-03-18T01:53:21.250Z,1004.92
2023-03-18T01:54:20.947Z,1004.91
2023-03-18T01:55:20.958Z,1004.88
2023-03-18T01:56:20.999Z,1004.92
2023-03-18T01:57:21.013Z,1004.85
2023-03-18T01:58:21.041Z,1004.86
2023-03-18T01:59:21.078Z,1004.84
2023-03-18T02:00:21.397Z,1004.82
2023-03-18T02:02:21.160Z,1004.84
2023-03-18T02:03:21.188Z,1004.87
2023-03-18T02:04:21.229Z,1004.85
2023-03-18T02:05:21.248Z,1004.93
2023-03-18T02:06:21.287Z,1004.96
2023-03-18T02:07:21.609Z,1004.93
2023-03-18T02:08:21.337Z,1004.97
2023-03-18T02:09:21.363Z,1004.97
2023-03-18T02:10:21.413Z,1004.96
2023-03-18T02:11:21.431Z,1004.95
2023-03-18T02:12:21.454Z,1004.97
2023-03-18T02:13:21.491Z,1004.97
2023-03-18T02:14:21.814Z,1004.97
2023-03-18T02:15:22.293Z,1004.99
2023-03-18T02:16:21.629Z,1005.01
2023-03-18T02:17:21.598Z,1005.05
2023-03-18T02:18:21.628Z,1005.02
2023-03-18T02:19:21.661Z,1005.01
2023-03-18T02:20:21.706Z,1004.98
2023-03-18T02:21:22.034Z,1004.99
2023-03-18T02:22:21.748Z,1004.96
2023-03-18T02:23:21.783Z,1004.94
2023-03-18T02:24:21.809Z,1004.93
2023-03-18T02:25:21.845Z,1004.92
2023-03-18T02:26:21.887Z,1004.98
2023-03-18T02:27:22.029Z,1004.88
2023-03-18T02:28:22.222Z,1004.89
2023-03-18T02:29:21.946Z,1004.94
2023-03-18T02:30:21.978Z,1004.90
2023-03-18T02:31:22.068Z,1004.90
2023-03-18T02:32:22.049Z,1004.90
2023-03-18T02:33:22.092Z,1004.92
2023-03-18T02:35:22.463Z,1004.86
2023-03-18T02:36:22.255Z,1004.90
2023-03-18T02:37:22.186Z,1004.90
2023-03-18T02:38:22.211Z,1004.88
2023-03-18T02:39:22.257Z,1004.87
2023-03-18T02:40:22.270Z,1004.93
2023-03-18T02:41:22.615Z,1004.95
2023-03-18T02:42:22.354Z,1004.98
2023-03-18T02:43:22.361Z,1005.02
2023-03-18T02:44:22.386Z,1004.95
2023-03-18T02:45:22.421Z,1004.93
2023-03-18T02:46:22.536Z,1005.01
2023-03-18T02:48:22.503Z,1005.02
2023-03-18T02:49:22.532Z,1004.99
2023-03-18T02:50:22.567Z,1005.02
2023-03-18T02:51:22.598Z,1005.08
2023-03-18T02:52:22.624Z,1005.07
2023-03-18T02:53:22.965Z,1005.08
2023-03-18T02:54:22.688Z,1005.08
2023-03-18T02:55:22.742Z,1005.08
2023-03-18T02:56:22.743Z,1005.05
2023-03-18T02:57:22.768Z,1005.12
2023-03-18T02:58:22.826Z,1005.08
2023-03-18T02:59:22.852Z,1005.12
2023-03-18T03:00:23.178Z,1005.18
2023-03-18T03:01:22.949Z,1005.18
2023-03-18T03:02:23.008Z,1005.21
2023-03-18T03:03:23.245Z,1005.27
2023-03-18T03:04:22.982Z,1005.23
2023-03-18T03:05:23.009Z,1005.24
2023-03-18T03:06:23.033Z,1005.22
2023-03-18T03:07:23.363Z,1005.26
2023-03-18T03:08:23.107Z,1005.26
2023-03-18T03:10:23.148Z,1005.35
2023-03-18T03:11:23.179Z,1005.37
2023-03-18T03:12:23.209Z,1005.35
2023-03-18T03:13:23.247Z,1005.37
2023-03-18T03:14:23.696Z,1005.34
2023-03-18T03:15:23.320Z,1005.30
2023-03-18T03:16:23.341Z,1005.32
2023-03-18T03:17:23.358Z,1005.31
2023-03-18T03:18:23.388Z,1005.31
2023-03-18T03:19:23.421Z,1005.36
2023-03-18T03:20:23.446Z,1005.42
2023-03-18T03:22:23.817Z,1005.39
2023-03-18T03:23:23.535Z,1005.42
2023-03-18T03:24:23.568Z,1005.40
2023-03-18T03:25:23.599Z,1005.39
2023-03-18T03:26:23.629Z,1005.40
2023-03-18T03:27:23.651Z,1005.39
2023-03-18T03:28:23.674Z,1005.42
2023-03-18T03:29:24.004Z,1005.38
2023-03-18T03:30:23.775Z,1005.38
2023-03-18T03:31:23.821Z,1005.36
2023-03-18T03:32:23.804Z,1005.39
2023-03-18T03:33:23.827Z,1005.38
2023-03-18T03:34:23.860Z,1005.38
2023-03-18T03:35:23.885Z,1005.40
2023-03-18T03:36:24.219Z,1005.40
2023-03-18T03:37:23.940Z,1005.40
2023-03-18T03:38:23.981Z,1005.42
2023-03-18T03:39:24.069Z,1005.39
2023-03-18T03:40:24.023Z,1005.41
2023-03-18T03:41:24.062Z,1005.44
2023-03-18T03:42:24.083Z,1005.44
2023-03-18T03:44:24.199Z,1005.46
2023-03-18T03:45:24.173Z,1005.48
2023-03-18T03:47:24.255Z,1005.53
2023-03-18T03:48:24.262Z,1005.54
2023-03-18T03:49:24.299Z,1005.56
2023-03-18T03:50:24.621Z,1005.54
2023-03-18T03:51:24.349Z,1005.55
2023-03-18T03:53:24.406Z,1005.56
2023-03-18T03:54:24.437Z,1005.54
2023-03-18T03:55:24.463Z,1005.58
2023-03-18T03:56:24.492Z,1005.57
2023-03-18T03:57:24.825Z,1005.57
2023-03-18T03:58:24.552Z,1005.59
2023-03-18T03:59:24.580Z,1005.61
2023-03-18T04:00:24.616Z,1005.63
2023-03-18T04:01:24.643Z,1005.61
2023-03-18T04:02:24.682Z,1005.59
2023-03-18T04:03:24.717Z,1005.66
2023-03-18T04:04:25.067Z,1005.65
2023-03-18T04:05:25.002Z,1005.66
2023-03-18T04:06:24.802Z,1005.64
2023-03-18T04:07:24.812Z,1005.65
2023-03-18T04:08:24.838Z,1005.65
2023-03-18T04:09:24.868Z,1005.66
2023-03-18T04:10:24.898Z,1005.67
2023-03-18T04:11:25.225Z,1005.63
2023-03-18T04:12:24.970Z,1005.62
2023-03-18T04:14:25.016Z,1005.63
2023-03-18T04:15:25.658Z,1005.64
2023-03-18T04:16:25.206Z,1005.65
2023-03-18T04:17:25.107Z,1005.68
2023-03-18T04:18:25.458Z,1005.71
2023-03-18T04:19:25.181Z,1005.72
2023-03-18T04:20:25.191Z,1005.74
2023-03-18T04:21:25.319Z,1005.78
2023-03-18T04:22:25.244Z,1005.80
2023-03-18T04:23:25.272Z,1005.78
2023-03-18T04:24:25.300Z,1005.81
2023-03-18T04:26:25.662Z,1005.79
2023-03-18T04:27:25.391Z,1005.79
2023-03-18T04:28:25.447Z,1005.77
2023-03-18T04:29:25.444Z,1005.78
2023-03-18T04:30:25.527Z,1005.74
2023-03-18T04:31:25.552Z,1005.79
2023-03-18T04:32:25.539Z,1005.79
2023-03-18T04:33:25.864Z,1005.80
2023-03-18T04:34:25.595Z,1005.84
2023-03-18T04:35:25.655Z,1005.85
2023-03-18T04:36:25.649Z,1005.87
2023-03-18T04:37:25.692Z,1005.84
2023-03-18T04:38:25.716Z,1005.90
2023-03-18T04:39:25.748Z,1005.89
2023-03-18T04:40:26.090Z,1005.90
2023-03-18T04:41:25.805Z,1005.87
2023-03-18T04:42:25.842Z,1005.89
2023-03-18T04:43:25.859Z,1005.94
2023-03-18T04:44:25.885Z,1005.92
2023-03-18T04:45:25.907Z,1005.95
2023-03-18T04:46:26.008Z,1005.90
2023-03-18T04:47:26.275Z,1005.90
2023-03-18T04:48:25.997Z,1005.93
2023-03-18T04:49:26.027Z,1005.95
2023-03-18T04:50:26.069Z,1005.98
2023-03-18T04:51:26.105Z,1005.94
2023-03-18T04:52:26.125Z,1005.95
2023-03-18T04:53:26.144Z,1005.95
2023-03-18T04:54:26.469Z,1005.99
2023-03-18T04:55:26.496Z,1005.98
2023-03-18T04:56:26.231Z,1005.98
2023-03-18T04:57:26.259Z,1005.97
2023-03-18T04:58:26.316Z,1006.02
2023-03-18T04:59:26.327Z,1006.03
2023-03-18T05:00:26.343Z,1006.01
2023-03-18T05:01:26.673Z,1006.02
2023-03-18T05:02:26.406Z,1006.04
2023-03-18T05:03:26.436Z,1005.99
2023-03-18T05:04:26.479Z,1005.99
2023-03-18T05:05:26.490Z,1006.01
2023-03-18T05:06:26.522Z,1006.01
2023-03-18T05:07:26.659Z,1006.08
2023-03-18T05:08:26.892Z,1006.06
2023-03-18T05:09:26.613Z,1006.07
2023-03-18T05:10:26.647Z,1006.08
2023-03-18T05:11:26.679Z,1006.08
2023-03-18T05:12:26.694Z,1006.07
2023-03-18T05:13:26.728Z,1006.05
2023-03-18T05:14:26.772Z,1006.10
2023-03-18T05:15:27.085Z,1006.03
2023-03-18T05:16:26.859Z,1006.06
2023-03-18T05:17:26.876Z,1006.08
2023-03-18T05:18:26.875Z,1006.06
2023-03-18T05:19:26.914Z,1006.08
2023-03-18T05:20:26.923Z,1006.05
2023-03-18T05:21:28.321Z,1006.07
2023-03-18T05:22:27.288Z,1006.09
2023-03-18T05:23:27.069Z,1006.08
2023-03-18T05:24:27.041Z,1006.15
2023-03-18T05:25:27.086Z,1006.16
2023-03-18T05:26:27.142Z,1006.11
2023-03-18T05:27:27.200Z,1006.06
2023-03-18T05:28:27.467Z,1006.10
2023-03-18T05:29:27.204Z,1006.14
2023-03-18T05:31:27.285Z,1006.13
2023-03-18T05:32:27.353Z,1006.13
2023-03-18T05:33:27.310Z,1006.15
2023-03-18T05:34:27.656Z,1006.16
2023-03-18T05:35:27.360Z,1006.19
2023-03-18T05:36:27.385Z,1006.19
2023-03-18T05:37:27.419Z,1006.20
2023-03-18T05:38:27.448Z,1006.18
2023-03-18T05:39:27.639Z,1006.19
2023-03-18T05:42:28.562Z,1006.26
2023-03-18T05:43:27.586Z,1006.29
2023-03-18T05:44:27.625Z,1006.29
2023-03-18T05:45:27.655Z,1006.29
2023-03-18T05:46:27.729Z,1006.35
2023-03-18T05:47:27.955Z,1006.35
2023-03-18T05:48:28.754Z,1006.35
2023-03-18T05:49:27.765Z,1006.34
2023-03-18T05:50:27.801Z,1006.31
2023-03-18T05:52:28.034Z,1006.38
2023-03-18T05:53:27.910Z,1006.35
2023-03-18T05:54:28.209Z,1006.38
2023-03-18T05:55:27.955Z,1006.38
2023-03-18T05:56:27.978Z,1006.36
2023-03-18T05:57:28.013Z,1006.36
2023-03-18T05:58:28.024Z,1006.39
2023-03-18T05:59:28.052Z,1006.37
2023-03-18T06:00:28.083Z,1006.40
2023-03-18T06:01:28.451Z,1006.40
2023-03-18T06:02:28.189Z,1006.40
2023-03-18T06:03:28.265Z,1006.41
2023-03-18T06:04:28.198Z,1006.45
2023-03-18T06:05:28.234Z,1006.42
2023-03-18T06:06:28.328Z,1006.43
2023-03-18T06:07:28.298Z,1006.43
2023-03-18T06:08:28.727Z,1006.47
2023-03-18T06:09:28.343Z,1006.47
2023-03-18T06:10:28.384Z,1006.49
2023-03-18T06:11:28.420Z,1006.47
2023-03-18T06:12:28.432Z,1006.48
2023-03-18T06:13:28.463Z,1006.46
2023-03-18T06:14:28.487Z,1006.44
2023-03-18T06:15:28.837Z,1006.45
2023-03-18T06:16:28.558Z,1006.45
2023-03-18T06:17:28.579Z,1006.45
2023-03-18T06:18:28.606Z,1006.50
2023-03-18T06:19:28.636Z,1006.51
2023-03-18T06:20:28.665Z,1006.48
2023-03-18T06:21:28.690Z,1006.48
2023-03-18T06:22:29.019Z,1006.48
2023-03-18T06:24:28.813Z,1006.47
2023-03-18T06:25:28.808Z,1006.46
2023-03-18T06:26:28.848Z,1006.47
2023-03-18T06:27:28.884Z,1006.49
2023-03-18T06:28:28.916Z,1006.53
2023-03-18T06:29:29.225Z,1006.52
2023-03-18T06:30:28.959Z,1006.53
2023-03-18T06:32:29.082Z,1006.58
2023-03-18T06:33:29.035Z,1006.55
2023-03-18T06:34:29.072Z,1006.59
2023-03-18T06:35:29.097Z,1006.59
2023-03-18T06:36:29.506Z,1006.59
2023-03-18T06:37:29.251Z,1006.62
2023-03-18T06:38:29.183Z,1006.60
2023-03-18T06:39:29.213Z,1006.67
2023-03-18T06:40:29.242Z,1006.66
2023-03-18T06:41:29.281Z,1006.62
2023-03-18T06:42:29.348Z,1006.61
2023-03-18T06:43:29.651Z,1006.64
2023-03-18T06:44:29.365Z,1006.63
2023-03-18T06:45:29.490Z,1006.62
2023-03-18T06:46:29.559Z,1006.65
2023-03-18T06:47:29.456Z,1006.67
2023-03-18T06:48:29.482Z,1006.60
2023-03-18T06:49:29.507Z,1006.63
2023-03-18T06:50:29.839Z,1006.62
2023-03-18T06:51:29.571Z,1006.67
2023-03-18T06:52:29.605Z,1006.64
2023-03-18T06:53:29.620Z,1006.69
2023-03-18T06:54:29.652Z,1006.67
2023-03-18T06:55:29.677Z,1006.69
2023-03-18T06:56:29.759Z,1006.71
2023-03-18T06:57:30.044Z,1006.71
2023-03-18T06:58:29.765Z,1006.71
2023-03-18T06:59:29.815Z,1006.66
2023-03-18T07:00:29.894Z,1006.66
2023-03-18T07:01:29.930Z,1006.69
2023-03-18T07:02:29.877Z,1006.69
2023-03-18T07:03:29.915Z,1006.68
2023-03-18T07:04:30.293Z,1006.67
2023-03-18T07:05:29.975Z,1006.71
2023-03-18T07:06:30.006Z,1006.72
2023-03-18T07:07:30.029Z,1006.74
2023-03-18T07:08:30.052Z,1006.76
2023-03-18T07:09:30.081Z,1006.77
2023-03-18T07:10:30.214Z,1006.78
2023-03-18T07:11:30.438Z,1006.79
2023-03-18T07:12:30.171Z,1006.83
2023-03-18T07:13:30.196Z,1006.83
2023-03-18T07:14:30.223Z,1006.86
2023-03-18T07:16:30.485Z,1006.87
2023-03-18T07:17:30.312Z,1006.83
2023-03-18T07:18:30.639Z,1006.88
2023-03-18T07:19:30.369Z,1006.87
2023-03-18T07:20:30.443Z,1006.86
2023-03-18T07:21:30.430Z,1006.87
2023-03-18T07:22:30.474Z,1006.92
2023-03-18T07:24:30.772Z,1006.90
2023-03-18T07:25:30.908Z,1006.91
2023-03-18T07:26:30.578Z,1006.95
2023-03-18T07:27:30.602Z,1006.93
2023-03-18T07:28:30.646Z,1006.97
2023-03-18T07:29:30.659Z,1006.99
2023-03-18T07:30:31.002Z,1007.02
2023-03-18T07:31:30.747Z,1007.00
2023-03-18T07:32:30.845Z,1007.07
2023-03-18T07:33:30.840Z,1007.02
2023-03-18T07:34:30.813Z,1007.04
2023-03-18T07:35:31.389Z,1007.04
2023-03-18T07:36:31.166Z,1007.04
2023-03-18T07:37:30.893Z,1006.99
2023-03-18T07:39:30.953Z,1006.98
2023-03-18T07:41:31.013Z,1006.97
2023-03-18T07:42:31.037Z,1006.97
2023-03-18T07:43:31.370Z,1007.00
2023-03-18T07:44:31.110Z,1007.03
2023-03-18T07:45:31.463Z,1007.01
2023-03-18T07:46:31.195Z,1007.04
2023-03-18T07:47:31.195Z,1007.05
2023-03-18T07:48:31.249Z,1007.08
2023-03-18T07:49:31.240Z,1007.10
2023-03-18T07:50:31.578Z,1007.11
2023-03-18T07:51:31.307Z,1007.11
2023-03-18T07:52:31.338Z,1007.10
2023-03-18T07:53:31.359Z,1007.09
2023-03-18T07:54:31.400Z,1007.11
2023-03-18T07:56:31.744Z,1007.12
2023-03-18T07:57:31.493Z,1007.15
2023-03-18T07:58:31.510Z,1007.16
2023-03-18T07:59:31.544Z,1007.18
2023-03-18T08:00:31.564Z,1007.21
2023-03-18T08:01:31.775Z,1007.22
2023-03-18T08:03:32.001Z,1007.26
2023-03-18T08:04:32.045Z,1007.30
2023-03-18T08:05:32.061Z,1007.28
2023-03-18T08:06:31.755Z,1007.31
2023-03-18T08:07:31.780Z,1007.28
2023-03-18T08:08:31.797Z,1007.28
2023-03-18T08:09:31.842Z,1007.28
2023-03-18T08:10:32.158Z,1007.30
2023-03-18T08:11:31.893Z,1007.28
2023-03-18T08:12:45.382Z,1007.30
2023-03-18T08:13:31.953Z,1007.33
2023-03-18T08:14:32.012Z,1007.35
2023-03-18T08:15:32.340Z,1007.33
2023-03-18T08:16:32.080Z,1007.34
2023-03-18T08:17:32.376Z,1007.36
2023-03-18T08:18:32.097Z,1007.37
2023-03-18T08:19:32.127Z,1007.38
2023-03-18T08:20:32.269Z,1007.40
2023-03-18T08:21:32.292Z,1007.35
2023-03-18T08:22:32.208Z,1007.37
2023-03-18T08:25:32.625Z,1007.33
2023-03-18T08:26:32.403Z,1007.39
2023-03-18T08:27:32.357Z,1007.35
2023-03-18T08:28:32.390Z,1007.39
2023-03-18T08:29:32.414Z,1007.44
2023-03-18T08:30:32.443Z,1007.46
2023-03-18T08:31:32.835Z,1007.45
2023-03-18T08:32:32.618Z,1007.45
2023-03-18T08:33:32.539Z,1007.45
2023-03-18T08:34:32.566Z,1007.47
2023-03-18T08:35:32.947Z,1007.48
2023-03-18T08:36:32.681Z,1007.44
2023-03-18T08:37:32.710Z,1007.49
2023-03-18T08:38:32.684Z,1007.43
2023-03-18T08:39:32.712Z,1007.44
2023-03-18T08:40:32.736Z,1007.45
2023-03-18T08:41:32.768Z,1007.46
2023-03-18T08:44:33.154Z,1007.48
2023-03-18T08:45:33.158Z,1007.48
2023-03-18T08:46:32.917Z,1007.49
2023-03-18T08:47:33.055Z,1007.51
2023-03-18T08:48:32.983Z,1007.48
2023-03-18T08:49:33.014Z,1007.52
2023-03-18T08:50:33.344Z,1007.53
2023-03-18T08:51:33.073Z,1007.51
2023-03-18T08:52:33.130Z,1007.54
2023-03-18T08:53:33.132Z,1007.48
2023-03-18T08:54:33.169Z,1007.48
2023-03-18T08:55:33.355Z,1007.48
2023-03-18T08:56:33.524Z,1007.48
2023-03-18T08:57:33.249Z,1007.49
2023-03-18T08:58:33.280Z,1007.50
2023-03-18T09:00:33.377Z,1007.52
2023-03-18T09:01:33.482Z,1007.51
2023-03-18T09:02:33.439Z,1007.53
2023-03-18T09:03:33.830Z,1007.54
2023-03-18T09:04:33.605Z,1007.50
2023-03-18T09:05:33.880Z,1007.49
2023-03-18T09:06:33.525Z,1007.46
2023-03-18T09:07:33.557Z,1007.48
2023-03-18T09:08:33.605Z,1007.45
2023-03-18T09:09:43.223Z,1007.48
2023-03-18T09:10:34.038Z,1007.45
2023-03-18T09:11:33.678Z,1007.50
2023-03-18T09:12:33.701Z,1007.52
2023-03-18T09:13:33.823Z,1007.53
2023-03-18T09:14:33.756Z,1007.52
2023-03-18T09:15:34.481Z,1007.48
2023-03-18T09:16:33.875Z,1007.50
2023-03-18T09:17:50.932Z,1007.45
2023-03-18T09:18:33.885Z,1007.49
2023-03-18T09:19:33.907Z,1007.47
2023-03-18T09:20:33.943Z,1007.49
2023-03-18T09:22:33.995Z,1007.49
2023-03-18T09:23:34.025Z,1007.46
2023-03-18T09:24:34.371Z,1007.44
2023-03-18T09:25:34.644Z,1007.45
2023-03-18T09:26:34.113Z,1007.47
2023-03-18T09:27:34.448Z,1007.45
2023-03-18T09:28:34.168Z,1007.42
2023-03-18T09:29:34.200Z,1007.38
2023-03-18T09:30:34.285Z,1007.41
2023-03-18T09:31:34.663Z,1007.41
2023-03-18T09:32:34.292Z,1007.41
2023-03-18T09:33:34.372Z,1007.40
2023-03-18T09:34:34.470Z,1007.42
2023-03-18T09:35:34.809Z,1007.42
2023-03-18T09:36:34.415Z,1007.43
2023-03-18T09:37:34.472Z,1007.46
2023-03-18T09:38:34.777Z,1007.48
2023-03-18T09:40:36.293Z,1007.44
2023-03-18T09:41:34.568Z,1007.44
2023-03-18T09:42:34.592Z,1007.41
2023-03-18T09:44:34.646Z,1007.41
2023-03-18T09:45:34.990Z,1007.37
2023-03-18T09:46:34.854Z,1007.38
2023-03-18T09:47:34.740Z,1007.36
2023-03-18T09:48:34.763Z,1007.31
2023-03-18T09:49:34.809Z,1007.34
2023-03-18T09:50:34.828Z,1007.33
2023-03-18T09:51:34.885Z,1007.36
2023-03-18T09:52:34.891Z,1007.35
2023-03-18T09:53:34.925Z,1007.37
2023-03-18T09:54:34.949Z,1007.36
2023-03-18T09:55:34.980Z,1007.35
2023-03-18T09:56:35.024Z,1007.38
2023-03-18T09:57:35.059Z,1007.34
2023-03-18T09:58:35.369Z,1007.33
2023-03-18T09:59:35.109Z,1007.34
2023-03-18T10:00:35.131Z,1007.34
2023-03-18T10:01:35.203Z,1007.33
2023-03-18T10:02:35.197Z,1007.33
2023-03-18T10:03:35.255Z,1007.35
2023-03-18T10:04:35.550Z,1007.40
2023-03-18T10:05:35.295Z,1007.40
2023-03-18T10:06:35.412Z,1007.44
2023-03-18T10:07:35.373Z,1007.45
2023-03-18T10:08:36.445Z,1007.48
2023-03-18T10:09:35.400Z,1007.42
2023-03-18T10:10:35.737Z,1007.47
2023-03-18T10:11:35.492Z,1007.44
2023-03-18T10:12:35.534Z,1007.39
2023-03-18T10:13:35.519Z,1007.38
2023-03-18T10:14:36.456Z,1007.39
2023-03-18T10:15:36.050Z,1007.40
2023-03-18T10:16:35.941Z,1007.37
2023-03-18T10:17:35.689Z,1007.36
2023-03-18T10:18:35.667Z,1007.39
2023-03-18T10:19:35.711Z,1007.37
2023-03-18T10:20:35.733Z,1007.34
2023-03-18T10:21:35.763Z,1007.38
2023-03-18T10:22:35.815Z,1007.36
2023-03-18T10:23:36.154Z,1007.38
2023-03-18T10:24:35.872Z,1007.42
2023-03-18T10:25:36.110Z,1007.43
2023-03-18T10:26:35.968Z,1007.46
2023-03-18T10:27:35.952Z,1007.47
2023-03-18T10:28:36.084Z,1007.52
2023-03-18T10:29:36.056Z,1007.51
2023-03-18T10:30:36.340Z,1007.52
2023-03-18T10:31:36.171Z,1007.54
2023-03-18T10:35:36.383Z,1007.48
2023-03-18T10:36:36.230Z,1007.40
2023-03-18T10:37:36.564Z,1007.44
2023-03-18T10:38:36.366Z,1007.44
2023-03-18T10:39:36.421Z,1007.43
2023-03-18T10:40:36.416Z,1007.40
2023-03-18T10:41:36.380Z,1007.40
2023-03-18T10:42:36.410Z,1007.44
2023-03-18T10:43:36.473Z,1007.46
2023-03-18T10:44:38.500Z,1007.44
2023-03-18T10:45:38.246Z,1007.49
2023-03-18T10:46:38.054Z,1007.50
2023-03-18T10:47:37.859Z,1007.50
2023-03-18T10:48:39.110Z,1007.43
2023-03-18T10:49:36.721Z,1007.41
2023-03-18T10:50:36.915Z,1007.38
2023-03-18T10:51:36.976Z,1007.37
2023-03-18T10:52:36.766Z,1007.37
2023-03-18T10:54:36.768Z,1007.37
2023-03-18T10:55:36.802Z,1007.31
2023-03-18T10:56:36.862Z,1007.33
2023-03-18T10:57:36.864Z,1007.34
2023-03-18T10:58:37.201Z,1007.34
2023-03-18T10:59:37.230Z,1007.32
2023-03-18T11:00:36.968Z,1007.36
2023-03-18T11:01:37.030Z,1007.37
2023-03-18T11:02:37.101Z,1007.34
2023-03-18T11:03:37.053Z,1007.30
2023-03-18T11:04:37.074Z,1007.33
2023-03-18T11:05:37.433Z,1007.34
2023-03-18T11:06:37.132Z,1007.33
2023-03-18T11:07:37.174Z,1007.34
2023-03-18T11:08:37.200Z,1007.32
2023-03-18T11:09:37.232Z,1007.33
2023-03-18T11:10:37.260Z,1007.36
2023-03-18T11:11:37.283Z,1007.33
2023-03-18T11:12:37.613Z,1007.36
2023-03-18T11:13:37.355Z,1007.37
2023-03-18T11:14:37.536Z,1007.41
2023-03-18T11:16:37.452Z,1007.40
2023-03-18T11:18:37.799Z,1007.42
2023-03-18T11:19:37.580Z,1007.46
2023-03-18T11:20:37.562Z,1007.46
2023-03-18T11:21:37.599Z,1007.47
2023-03-18T11:22:37.622Z,1007.48
2023-03-18T11:24:38.071Z,1007.62
2023-03-18T11:25:37.707Z,1007.60
2023-03-18T11:26:37.745Z,1007.54
2023-03-18T11:27:37.838Z,1007.56
2023-03-18T11:28:37.855Z,1007.58
2023-03-18T11:29:37.831Z,1007.54
2023-03-18T11:30:38.222Z,1007.52
2023-03-18T11:31:37.985Z,1007.52
2023-03-18T11:32:38.016Z,1007.53
2023-03-18T11:33:38.011Z,1007.49
2023-03-18T11:34:38.004Z,1007.49
2023-03-18T11:35:38.246Z,1007.45
2023-03-18T11:36:38.346Z,1007.53
2023-03-18T11:37:38.085Z,1007.56
2023-03-18T11:38:38.157Z,1007.57
2023-03-18T11:39:38.148Z,1007.54
2023-03-18T11:40:38.167Z,1007.60
2023-03-18T11:41:38.208Z,1007.59
2023-03-18T11:42:38.280Z,1007.61
2023-03-18T11:43:38.582Z,1007.59
2023-03-18T11:44:38.296Z,1007.56
2023-03-18T11:45:38.349Z,1007.57
2023-03-18T11:46:38.422Z,1007.61
2023-03-18T11:47:38.390Z,1007.57
2023-03-18T11:48:38.440Z,1007.61
2023-03-18T11:49:38.457Z,1007.53
2023-03-18T11:50:38.773Z,1007.50
2023-03-18T11:51:38.576Z,1007.50
2023-03-18T11:52:38.540Z,1007.44
2023-03-18T11:53:38.563Z,1007.47
2023-03-18T11:55:38.627Z,1007.49
2023-03-18T11:57:38.990Z,1007.45
2023-03-18T11:58:38.728Z,1007.44
2023-03-18T11:59:38.805Z,1007.42
2023-03-18T12:00:38.784Z,1007.41
2023-03-18T12:01:38.825Z,1007.43
2023-03-18T12:02:38.869Z,1007.44
2023-03-18T12:04:39.333Z,1007.46
2023-03-18T12:05:38.943Z,1007.43
2023-03-18T12:06:38.988Z,1007.41
2023-03-18T12:07:39.019Z,1007.41
2023-03-18T12:08:39.026Z,1007.43
2023-03-18T12:09:39.055Z,1007.37
2023-03-18T12:10:39.098Z,1007.39
2023-03-18T12:11:39.120Z,1007.41
2023-03-18T12:12:39.153Z,1007.39
2023-03-18T12:13:39.181Z,1007.38
2023-03-18T12:14:39.219Z,1007.38
2023-03-18T12:15:39.269Z,1007.38
2023-03-18T12:16:39.349Z,1007.39
2023-03-18T12:17:39.614Z,1007.40
2023-03-18T12:18:42.347Z,1007.35
2023-03-18T12:19:39.369Z,1007.34
2023-03-18T12:20:39.420Z,1007.27
2023-03-18T12:21:39.438Z,1007.24
2023-03-18T12:22:39.458Z,1007.20
2023-03-18T12:23:39.505Z,1007.15
2023-03-18T12:24:39.829Z,1007.14
2023-03-18T12:25:39.582Z,1007.18
2023-03-18T12:26:39.587Z,1007.18
2023-03-18T12:27:39.621Z,1007.14
2023-03-18T12:28:39.650Z,1007.14
2023-03-18T12:29:39.689Z,1007.14
2023-03-18T12:30:39.723Z,1007.15
2023-03-18T12:31:40.254Z,1007.16
2023-03-18T12:32:39.818Z,1007.20
2023-03-18T12:33:39.804Z,1007.21
2023-03-18T12:34:39.845Z,1007.21
2023-03-18T12:35:39.956Z,1007.20
2023-03-18T12:36:39.927Z,1007.20
2023-03-18T12:37:39.933Z,1007.17
2023-03-18T12:38:40.264Z,1007.16
2023-03-18T12:39:40.015Z,1007.16
2023-03-18T12:40:40.043Z,1007.18
2023-03-18T12:41:40.059Z,1007.14
2023-03-18T12:42:40.089Z,1007.13
2023-03-18T12:43:40.122Z,1007.13
2023-03-18T12:44:40.163Z,1007.11
2023-03-18T12:45:40.526Z,1007.07
2023-03-18T12:46:40.266Z,1007.04
2023-03-18T12:47:40.247Z,1007.03
2023-03-18T12:48:44.471Z,1007.04
2023-03-18T12:49:40.316Z,1006.99
2023-03-18T12:50:40.346Z,1006.98
2023-03-18T12:51:40.672Z,1006.97
2023-03-18T12:52:40.424Z,1006.94
2023-03-18T12:53:40.436Z,1006.90
2023-03-18T12:54:40.487Z,1006.88
2023-03-18T12:55:40.515Z,1006.88
2023-03-18T12:56:40.539Z,1006.86